Flight Track Log - Related Links

Times and Time Zones

All times are in EDT time to prevent confusion due to time zone crossing. See the FIN666 flight status page for this flight to view local times or setup timezone preferences in your user account.

Time Position Orientation Groundspeed Altitude Reporting Facility
EDT Latitude Longitude Course Direction KTS MPH feet Rate Location/Type
Thu 07:32:00 AM 55.8556 13.1474 49° Northeast  Level Estimated
Thu 07:33:00 AM 55.9343 13.3125 50° Northeast  Level Estimated
Thu 07:34:00 AM 56.0129 13.4784 50° Northeast  Level Estimated
Thu 07:35:00 AM 56.0912 13.6449 50° Northeast  Level Estimated
Thu 07:36:00 AM 56.1693 13.8120 50° Northeast  Level Estimated
Thu 07:37:00 AM 56.2472 13.9799 50° Northeast  Level Estimated
Thu 07:38:00 AM 56.3249 14.1484 50° Northeast  Level Estimated
Thu 07:39:00 AM 56.4023 14.3176 50° Northeast  Level Estimated
Thu 07:40:00 AM 56.4795 14.4875 51° Northeast  Level Estimated
Thu 07:41:00 AM 56.5564 14.6581 51° Northeast  Level Estimated
Thu 07:42:00 AM 56.6332 14.8294 51° Northeast  Level Estimated
Thu 07:43:00 AM 56.7097 15.0014 51° Northeast  Level Estimated
Thu 07:44:00 AM 56.7859 15.1741 51° Northeast  Level Estimated
Thu 07:45:00 AM 56.8619 15.3475 51° Northeast  Level Estimated
Thu 07:46:00 AM 56.9377 15.5216 51° Northeast  Level Estimated
Thu 07:47:00 AM 57.0132 15.6964 52° Northeast  Level Estimated
Thu 07:48:00 AM 57.0885 15.8719 52° Northeast  Level Estimated
Thu 07:49:00 AM 57.1636 16.0482 52° Northeast  Level Estimated
Thu 07:50:00 AM 57.2372 16.2225 52° Northeast  Level Estimated
Thu 07:51:00 AM 57.3107 16.3974 52° Northeast  Level Estimated
Thu 07:52:00 AM 57.3839 16.5731 52° Northeast  Level Estimated
Thu 07:53:00 AM 57.4568 16.7495 52° Northeast  Level Estimated
Thu 07:54:00 AM 57.5295 16.9266 53° Northeast  Level Estimated
Thu 07:55:00 AM 57.6019 17.1045 53° Northeast  Level Estimated
Thu 07:56:00 AM 57.6741 17.2830 53° Northeast  Level Estimated
Thu 07:57:00 AM 57.7461 17.4622 53° Northeast  Level Estimated
Thu 07:58:00 AM 57.8178 17.6421 53° Northeast  Level Estimated
Thu 07:59:00 AM 57.8892 17.8228 53° Northeast  Level Estimated
Thu 08:00:00 AM 57.9604 18.0042 53° Northeast  Level Estimated
Thu 08:01:00 AM 58.0313 18.1863 54° Northeast  Level Estimated
Thu 08:02:00 AM 58.1020 18.3691 54° Northeast  Level Estimated
Thu 08:03:00 AM 58.1724 18.5526 54° Northeast  Level Estimated
Thu 08:04:00 AM 58.2425 18.7369 54° Northeast  Level Estimated
Thu 08:05:00 AM 58.3124 18.9219 54° Northeast  Level Estimated
Thu 08:06:00 AM 58.3820 19.1076 54° Northeast  Level Estimated
Thu 08:07:00 AM 58.4513 19.2941 55° Northeast  Level Estimated
Thu 08:08:00 AM 58.5203 19.4813 55° Northeast  Level Estimated
Thu 08:09:00 AM 58.5891 19.6692 55° Northeast  Level Estimated
Thu 08:10:00 AM 58.6576 19.8579 55° Northeast  Level Estimated
Thu 08:11:00 AM 58.7258 20.0473 55° Northeast  Level Estimated
Thu 08:12:00 AM 58.7938 20.2374 55° Northeast  Level Estimated
Thu 08:13:00 AM 58.8615 20.4283 56° Northeast  Level Estimated
Thu 08:14:00 AM 58.9289 20.6200 56° Northeast  Level Estimated
Thu 08:15:00 AM 58.9960 20.8123 56° Northeast  Level Estimated
Thu 08:16:00 AM 59.0628 21.0055 56° Northeast  Level Estimated
Thu 08:17:00 AM 59.1293 21.1994 56° Northeast  Level Estimated
Thu 08:18:00 AM 59.1955 21.3940 56° Northeast  Level Estimated
Thu 08:19:00 AM 59.2605 21.5865 57° Northeast  Level Estimated
Thu 08:20:00 AM 59.3252 21.7798 57° Northeast  Level Estimated
Thu 08:21:00 AM 59.3896 21.9738 57° Northeast  Level Estimated
Thu 08:22:00 AM 59.4537 22.1685 57° Northeast  Level Estimated
Thu 08:23:00 AM 59.5176 22.3640 57° Northeast  Level Estimated
Thu 08:24:00 AM 59.5811 22.5602 57° Northeast  Level Estimated
Thu 08:25:00 AM 59.6443 22.7572 58° Northeast  Level Estimated
Thu 08:26:00 AM 59.7073 22.9548 58° Northeast  Level Estimated
Thu 08:27:00 AM 59.7699 23.1533 58° Northeast  Level Estimated
Thu 08:28:00 AM 59.8322 23.3525 58° Northeast  Level Estimated
Thu 08:29:00 AM 59.8943 23.5524 58° Northeast  Level Estimated
Thu 08:30:00 AM 59.9560 23.7530 58° Northeast  Level Estimated
Thu 08:31:00 AM 60.0174 23.9545 59° Northeast  Level Estimated
Thu 08:32:00 AM 60.0786 24.1566 59° Northeast  Level Estimated
Thu 08:33:00 AM 60.1394 24.3595 59° Northeast  Level Estimated
Thu 08:34:00 AM 60.1999 24.5632 59° Northeast  Level Estimated
Thu 08:35:00 AM 60.2601 24.7676 59° Northeast  Level Estimated
Thu 08:36:00 AM 60.3172 24.9633 59° Northeast  Level Estimated
Thu 08:37:00 AM 60.3172 24.9633 37° Northeast  Level Estimated
Thu 08:38:00 AM 60.3172 24.9633 37° Northeast  Level Estimated
Thu 08:39:00 AM 60.3172 24.9633 37° Northeast  Level Estimated
Thu 08:40:00 AM 60.3172 24.9633 37° Northeast  Level Estimated
Thu 08:41:00 AM 60.3172 24.9633 37° Northeast  Level Estimated
Thu 08:42:00 AM 60.3172 24.9633 37° Northeast  Level Estimated
Thu 08:43:00 AM 60.3172 24.9633 37° Northeast  Level Estimated
Thu 08:44:00 AM 60.3172 24.9633 37° Northeast  Level Estimated
Thu 08:45:00 AM 60.3172 24.9633 37° Northeast  Level Estimated
Thu 08:46:00 AM 60.3172 24.9633 37° Northeast  Level Estimated
Thu 08:47:00 AM 60.3172 24.9633 37° Northeast  Level Estimated
Thu 08:48:00 AM 60.3172 24.9633 37° Northeast  Level Estimated
Thu 08:49:00 AM 60.3172 24.9633 37° Northeast  Level Estimated
Thu 08:50:00 AM 60.3172 24.9633 37° Northeast  Level Estimated
Thu 08:51:00 AM 60.3172 24.9633 37° Northeast  Level Estimated

Login

Don't have an account? Register now (free) for customized features, flight alerts, and more!